Time;durP1;ratioP1;P1;durP2;ratioP2;P2;SDS_P1;SDS_P2;PMS_P1;PMS_P2;Temp;Humidity;BMP_temperature;BMP_pressure;BME280_temperature;BME280_humidity;BME280_pressure;Samples;Min_cycle;Max_cycle;Signal;HPM_P1;HPM_P2
2022/05/09 00:01:54;;;;;;;14.35;12.15;;;16.30;99.90;;;;;;5092392;28;20024;-78
2022/05/09 00:04:20;;;;;;;11.82;10.63;;;16.30;99.90;;;;;;5092802;28;20039;-77
2022/05/09 00:06:47;;;;;;;13.15;10.98;;;16.20;99.90;;;;;;5092770;28;20103;-76
2022/05/09 00:09:13;;;;;;;12.57;11.23;;;16.20;99.90;;;;;;5091941;28;20135;-77
2022/05/09 00:11:39;;;;;;;15.95;10.80;;;16.20;99.90;;;;;;5092536;28;20032;-77
2022/05/09 00:14:05;;;;;;;12.45;11.10;;;16.20;99.90;;;;;;5091459;28;20021;-76
2022/05/09 00:16:33;;;;;;;11.90;10.70;;;16.20;99.90;;;;;;5091147;28;20028;-77
2022/05/09 00:19:24;;;;;;;13.98;10.73;;;16.20;99.90;;;;;;5091577;28;20039;-77
2022/05/09 00:21:52;;;;;;;11.90;10.70;;;16.20;99.90;;;;;;5092572;28;20389;-80
2022/05/09 00:24:17;;;;;;;11.73;10.63;;;16.20;99.90;;;;;;5092206;28;20028;-76
2022/05/09 00:26:48;;;;;;;12.18;10.98;;;16.20;99.90;;;;;;5092144;28;20108;-76
2022/05/09 00:29:15;;;;;;;12.73;11.37;;;16.20;99.90;;;;;;5092041;28;20039;-76
2022/05/09 00:31:43;;;;;;;12.98;10.60;;;16.20;99.90;;;;;;5092388;28;20077;-77
2022/05/09 00:34:10;;;;;;;11.85;10.65;;;16.20;99.90;;;;;;5091497;28;20380;-76
2022/05/09 00:36:37;;;;;;;11.98;10.88;;;16.20;99.90;;;;;;5092273;28;20432;-77
2022/05/09 00:39:03;;;;;;;12.60;10.98;;;16.20;99.90;;;;;;5091345;28;20046;-77
2022/05/09 00:41:31;;;;;;;12.20;10.60;;;16.20;99.90;;;;;;5092419;28;20145;-77
2022/05/09 00:43:58;;;;;;;12.57;10.50;;;16.30;99.90;;;;;;5091478;28;20049;-78
2022/05/09 00:46:24;;;;;;;12.82;10.25;;;16.30;99.90;;;;;;5091968;28;20028;-77
2022/05/09 00:48:50;;;;;;;12.70;10.88;;;16.30;99.90;;;;;;5092311;28;20030;-77
2022/05/09 00:51:23;;;;;;;11.35;10.18;;;16.30;99.90;;;;;;5091254;28;20036;-77
2022/05/09 00:53:51;;;;;;;12.95;10.07;;;16.40;99.90;;;;;;5091974;28;20028;-78
2022/05/09 00:56:27;;;;;;;11.25;10.10;;;16.40;99.80;;;;;;5091431;28;20021;-75
2022/05/09 00:58:58;;;;;;;13.93;9.50;;;16.40;99.40;;;;;;5091565;28;20127;-78
2022/05/09 01:01:24;;;;;;;11.07;9.80;;;16.40;99.10;;;;;;5092027;28;20031;-77
2022/05/09 01:04:07;;;;;;;11.68;10.48;;;16.40;98.80;;;;;;5091499;28;20395;-76
2022/05/09 01:06:33;;;;;;;11.00;9.48;;;16.50;98.40;;;;;;5091703;28;20028;-77
2022/05/09 01:08:58;;;;;;;10.38;9.38;;;16.50;98.20;;;;;;5091126;28;20050;-77
2022/05/09 01:11:26;;;;;;;11.75;9.75;;;16.50;97.80;;;;;;5091422;28;20047;-77
2022/05/09 01:14:00;;;;;;;10.40;9.30;;;16.50;97.70;;;;;;5091448;28;20027;-77
2022/05/09 01:16:25;;;;;;;11.75;8.73;;;16.50;97.40;;;;;;5091653;28;20475;-78
2022/05/09 01:18:52;;;;;;;11.43;9.38;;;16.50;97.20;;;;;;5091592;28;20099;-77
2022/05/09 01:21:38;;;;;;;10.05;9.10;;;16.60;97.10;;;;;;5091048;28;20084;-77
2022/05/09 01:24:12;;;;;;;10.48;9.48;;;16.60;97.00;;;;;;5091060;28;20031;-77
2022/05/09 01:26:37;;;;;;;9.80;8.88;;;16.60;96.80;;;;;;5091552;28;20036;-77
2022/05/09 01:29:09;;;;;;;12.07;8.63;;;16.60;96.40;;;;;;5092877;28;20024;-78
2022/05/09 01:31:36;;;;;;;11.55;10.20;;;16.70;96.50;;;;;;5095922;28;20107;-78
2022/05/09 01:34:02;;;;;;;11.68;9.50;;;16.70;96.40;;;;;;5093730;28;20442;-78
2022/05/09 01:36:31;;;;;;;11.32;9.98;;;16.70;96.60;;;;;;5095619;28;20123;-78
2022/05/09 01:39:04;;;;;;;12.07;10.32;;;16.70;96.70;;;;;;5095069;28;20109;-78
2022/05/09 01:41:40;;;;;;;11.57;9.93;;;16.70;96.70;;;;;;5095623;28;20093;-78
2022/05/09 01:44:07;;;;;;;12.75;10.95;;;16.70;96.90;;;;;;5110687;28;20035;-78
2022/05/09 01:46:34;;;;;;;12.27;10.98;;;16.70;96.70;;;;;;5111097;28;20035;-75
2022/05/09 01:51:46;;;;;;;13.43;11.15;;;16.70;96.80;;;;;;5095452;28;20057;-77
2022/05/09 01:54:13;;;;;;;12.18;10.98;;;16.70;96.80;;;;;;5094818;28;20032;-76
2022/05/09 01:56:40;;;;;;;12.40;11.18;;;16.70;96.90;;;;;;5095029;28;20024;-75
2022/05/09 01:59:07;;;;;;;16.50;12.40;;;16.70;96.90;;;;;;5094734;28;20024;-77
2022/05/09 02:01:42;;;;;;;13.70;11.20;;;16.70;97.00;;;;;;5095102;28;20020;-78
2022/05/09 02:04:11;;;;;;;13.00;11.70;;;16.70;96.80;;;;;;5094225;28;20532;-78
2022/05/09 02:06:36;;;;;;;14.68;11.85;;;16.70;96.80;;;;;;5095086;28;20039;-77
2022/05/09 02:09:02;;;;;;;18.30;11.85;;;16.70;96.60;;;;;;5094437;28;20028;-78
2022/05/09 02:11:29;;;;;;;16.00;12.25;;;16.70;96.30;;;;;;5093484;28;20123;-78
2022/05/09 02:13:55;;;;;;;12.63;11.43;;;16.70;96.20;;;;;;5094975;28;20064;-75
2022/05/09 02:16:21;;;;;;;14.05;12.52;;;16.70;96.20;;;;;;5093104;28;20067;-76
2022/05/09 02:18:46;;;;;;;13.65;12.10;;;16.70;96.00;;;;;;5094922;28;20024;-77
2022/05/09 02:21:12;;;;;;;15.10;11.95;;;16.70;96.10;;;;;;5094075;28;20020;-78
2022/05/09 02:23:38;;;;;;;13.85;12.38;;;16.70;96.10;;;;;;5094443;28;20024;-77
2022/05/09 02:26:03;;;;;;;13.68;12.25;;;16.70;96.00;;;;;;5094135;28;20048;-78
2022/05/09 02:28:29;;;;;;;14.70;13.18;;;16.70;96.00;;;;;;5094656;28;20032;-77
2022/05/09 02:30:55;;;;;;;14.30;12.75;;;16.70;96.30;;;;;;5094483;28;20461;-77
2022/05/09 02:33:21;;;;;;;14.32;12.82;;;16.70;96.50;;;;;;5093692;28;20034;-76
2022/05/09 02:35:48;;;;;;;14.63;13.15;;;16.70;96.60;;;;;;5094367;28;20032;-76
2022/05/09 02:38:14;;;;;;;14.77;13.18;;;16.70;96.60;;;;;;5094249;28;20066;-77
2022/05/09 02:40:40;;;;;;;14.60;12.90;;;16.70;96.60;;;;;;5094258;28;20028;-76
2022/05/09 02:43:06;;;;;;;16.75;12.35;;;16.70;96.30;;;;;;5093900;28;20031;-78
2022/05/09 02:45:32;;;;;;;15.55;12.07;;;16.60;96.00;;;;;;5094147;28;20423;-76
2022/05/09 02:47:59;;;;;;;13.20;11.82;;;16.60;95.90;;;;;;5094305;28;20031;-77
2022/05/09 02:50:26;;;;;;;18.98;11.43;;;16.60;95.40;;;;;;5093137;28;20030;-77
2022/05/09 02:52:53;;;;;;;13.57;12.05;;;16.60;95.60;;;;;;5094583;28;20115;-77
2022/05/09 02:55:20;;;;;;;13.05;11.25;;;16.60;95.20;;;;;;5093350;28;20501;-77
2022/05/09 02:57:47;;;;;;;12.32;11.15;;;16.60;95.10;;;;;;5094198;28;20026;-78
2022/05/09 03:00:25;;;;;;;14.30;12.35;;;16.60;95.20;;;;;;5109143;28;20044;-78
2022/05/09 03:05:39;;;;;;;15.88;11.70;;;16.60;95.00;;;;;;5093014;28;20047;-77
2022/05/09 03:08:07;;;;;;;12.95;11.10;;;16.60;94.70;;;;;;5092942;28;20024;-77
2022/05/09 03:10:32;;;;;;;16.13;11.57;;;16.60;94.50;;;;;;5093740;28;20135;-78
2022/05/09 03:13:00;;;;;;;15.52;11.43;;;16.50;94.00;;;;;;5093861;28;20463;-77
2022/05/09 03:15:27;;;;;;;12.13;10.73;;;16.50;94.00;;;;;;5092720;28;20078;-77
2022/05/09 03:17:53;;;;;;;12.48;10.32;;;16.50;94.00;;;;;;5093597;28;20457;-77
2022/05/09 03:20:18;;;;;;;12.55;10.63;;;16.40;94.00;;;;;;5093003;28;20088;-77
2022/05/09 03:22:44;;;;;;;10.65;9.57;;;16.40;93.90;;;;;;5092056;28;20021;-77
2022/05/09 03:25:10;;;;;;;11.98;10.65;;;16.40;94.10;;;;;;5092826;28;20031;-76
2022/05/09 03:27:38;;;;;;;12.55;9.68;;;16.50;94.10;;;;;;5093158;28;20039;-77
2022/05/09 03:30:05;;;;;;;13.80;10.98;;;16.40;93.80;;;;;;5091332;28;20143;-79
2022/05/09 03:32:31;;;;;;;11.55;10.43;;;16.50;93.80;;;;;;5092170;28;20024;-77
2022/05/09 03:34:56;;;;;;;13.18;9.80;;;16.50;93.90;;;;;;5093234;28;20024;-77
2022/05/09 03:37:23;;;;;;;12.52;10.35;;;16.50;93.90;;;;;;5092636;28;20020;-78
2022/05/09 03:39:48;;;;;;;11.80;10.05;;;16.50;93.70;;;;;;5093099;28;20446;-77
2022/05/09 03:42:14;;;;;;;13.80;9.80;;;16.50;93.70;;;;;;5092480;28;20058;-77
2022/05/09 03:44:39;;;;;;;14.50;10.13;;;16.50;93.50;;;;;;5092991;28;20054;-76
2022/05/09 03:47:05;;;;;;;13.43;9.88;;;16.40;93.00;;;;;;5108089;28;20350;-79
2022/05/09 03:49:31;;;;;;;12.98;9.82;;;16.40;93.40;;;;;;5092604;28;20085;-76
2022/05/09 03:51:56;;;;;;;16.27;9.63;;;16.40;93.60;;;;;;5091772;28;20382;-76
2022/05/09 03:54:22;;;;;;;13.63;10.32;;;16.40;93.90;;;;;;5092365;28;20107;-77
2022/05/09 03:56:47;;;;;;;11.25;10.10;;;16.40;93.80;;;;;;5092887;28;20024;-77
2022/05/09 03:59:13;;;;;;;10.68;9.02;;;16.40;93.40;;;;;;5091967;28;20049;-77
2022/05/09 04:01:39;;;;;;;10.95;9.68;;;16.40;93.40;;;;;;5093025;28;20033;-78
2022/05/09 04:04:05;;;;;;;11.23;8.93;;;16.40;93.40;;;;;;5102668;28;20020;-76
2022/05/09 04:06:31;;;;;;;12.98;9.50;;;16.30;93.10;;;;;;5091277;28;20487;-75
2022/05/09 04:08:56;;;;;;;10.40;9.13;;;16.30;93.10;;;;;;5092219;28;20028;-77
2022/05/09 04:11:22;;;;;;;12.77;9.30;;;16.30;93.10;;;;;;5103553;28;20055;-77
2022/05/09 04:13:48;;;;;;;12.88;8.70;;;16.30;93.20;;;;;;5089626;28;20028;-77
2022/05/09 04:18:59;;;;;;;10.68;9.15;;;16.30;93.20;;;;;;5092206;28;20428;-76
2022/05/09 04:21:26;;;;;;;12.80;9.85;;;16.30;93.20;;;;;;5090374;28;20496;-75
2022/05/09 04:23:56;;;;;;;11.15;8.75;;;16.30;93.30;;;;;;5091924;28;20031;-76
2022/05/09 04:26:23;;;;;;;11.00;8.65;;;16.30;93.00;;;;;;5091510;28;20020;-78
2022/05/09 04:28:49;;;;;;;11.98;9.93;;;16.30;93.30;;;;;;5091939;28;20414;-76
2022/05/09 04:31:15;;;;;;;11.95;9.07;;;16.30;93.00;;;;;;5091593;28;20085;-77
2022/05/09 04:33:41;;;;;;;10.80;8.52;;;16.30;93.10;;;;;;5092081;28;20027;-76
2022/05/09 04:36:07;;;;;;;9.63;7.80;;;16.30;93.20;;;;;;5091977;28;20028;-76
2022/05/09 04:38:33;;;;;;;11.00;8.20;;;16.30;92.90;;;;;;5091822;28;20039;-77
2022/05/09 04:40:59;;;;;;;11.05;8.02;;;16.40;92.90;;;;;;5091952;28;20032;-77
2022/05/09 04:43:28;;;;;;;11.40;8.20;;;16.40;92.80;;;;;;5091835;28;20020;-75
2022/05/09 04:45:57;;;;;;;10.98;8.27;;;16.40;92.40;;;;;;5091834;28;20107;-76
2022/05/09 04:48:22;;;;;;;10.02;7.82;;;16.40;92.20;;;;;;5091632;28;20020;-77
2022/05/09 04:50:48;;;;;;;10.23;7.97;;;16.40;92.40;;;;;;5091839;28;20084;-77
2022/05/09 04:53:14;;;;;;;10.10;8.15;;;16.40;92.50;;;;;;5091234;28;20028;-76
2022/05/09 04:55:40;;;;;;;9.93;7.95;;;16.50;92.40;;;;;;5091741;28;20522;-76
2022/05/09 04:58:06;;;;;;;10.57;7.53;;;16.40;92.00;;;;;;5091701;28;20024;-76
2022/05/09 05:00:32;;;;;;;11.73;7.53;;;16.50;92.10;;;;;;5090972;28;20034;-77
2022/05/09 05:02:57;;;;;;;8.85;7.70;;;16.50;91.90;;;;;;5091609;28;20088;-77
2022/05/09 05:05:25;;;;;;;12.23;7.88;;;16.50;91.70;;;;;;5090978;28;20031;-76
2022/05/09 05:07:51;;;;;;;11.82;7.95;;;16.50;92.10;;;;;;5091462;28;20020;-76
2022/05/09 05:10:18;;;;;;;8.82;7.20;;;16.50;91.60;;;;;;5090824;28;20024;-76
2022/05/09 05:12:44;;;;;;;8.27;7.15;;;16.40;91.70;;;;;;5091068;28;20092;-78
2022/05/09 05:15:10;;;;;;;10.25;8.35;;;16.50;91.70;;;;;;5090968;28;20075;-76
2022/05/09 05:17:36;;;;;;;10.52;7.85;;;16.50;91.60;;;;;;5090472;28;20024;-76
2022/05/09 05:20:04;;;;;;;9.93;7.38;;;16.50;91.70;;;;;;5090807;28;20039;-76
2022/05/09 05:22:34;;;;;;;9.73;8.32;;;16.50;91.30;;;;;;5090548;28;20135;-76
2022/05/09 05:25:00;;;;;;;11.65;7.60;;;16.60;91.20;;;;;;5106762;28;20361;-76
2022/05/09 05:27:25;;;;;;;11.98;7.72;;;16.60;90.80;;;;;;5090124;28;20027;-77
2022/05/09 05:29:53;;;;;;;10.90;7.40;;;16.60;90.80;;;;;;5090582;28;20115;-77
2022/05/09 05:32:24;;;;;;;9.95;7.45;;;16.60;90.60;;;;;;5090233;28;20032;-77
2022/05/09 05:34:51;;;;;;;9.95;7.45;;;16.70;90.20;;;;;;5091369;28;20417;-77
2022/05/09 05:37:17;;;;;;;10.18;7.75;;;16.70;90.10;;;;;;5090216;28;20453;-77
2022/05/09 05:39:44;;;;;;;11.85;7.43;;;16.70;90.30;;;;;;5091116;28;20036;-76
2022/05/09 05:42:10;;;;;;;9.65;8.43;;;16.70;90.50;;;;;;5091234;28;20028;-76
2022/05/09 05:44:39;;;;;;;11.50;8.05;;;16.70;90.80;;;;;;5090282;28;20456;-76
2022/05/09 05:47:10;;;;;;;11.55;7.75;;;16.80;90.80;;;;;;5090884;28;20089;-77
2022/05/09 05:49:37;;;;;;;15.63;7.88;;;16.80;90.20;;;;;;5090286;28;20024;-77
2022/05/09 05:52:03;;;;;;;16.80;7.68;;;16.80;89.80;;;;;;5090638;28;20131;-77
2022/05/09 05:54:34;;;;;;;9.45;7.57;;;16.80;89.60;;;;;;5090119;28;20025;-77
2022/05/09 05:57:01;;;;;;;21.27;7.90;;;16.90;89.60;;;;;;5091415;28;20020;-77
2022/05/09 05:59:27;;;;;;;12.07;7.78;;;16.90;90.00;;;;;;5090381;28;20035;-77
2022/05/09 06:01:54;;;;;;;7.68;6.78;;;16.90;89.40;;;;;;5090862;28;20020;-77
2022/05/09 06:04:20;;;;;;;12.50;7.38;;;17.00;89.70;;;;;;5090214;28;20036;-75
2022/05/09 06:06:47;;;;;;;10.85;7.13;;;17.00;89.20;;;;;;5090908;28;20016;-77
2022/05/09 06:09:13;;;;;;;8.95;7.55;;;17.10;87.40;;;;;;5090138;28;20508;-77
2022/05/09 06:11:40;;;;;;;9.75;7.53;;;17.10;86.70;;;;;;5090001;28;20032;-77
2022/05/09 06:14:10;;;;;;;11.60;7.45;;;17.10;87.20;;;;;;5090306;28;20032;-77
2022/05/09 06:16:37;;;;;;;12.02;7.32;;;17.10;86.40;;;;;;5092717;28;20593;-77
2022/05/09 06:19:04;;;;;;;9.13;7.20;;;17.20;86.60;;;;;;5094361;28;20031;-77
2022/05/09 06:21:33;;;;;;;14.10;7.60;;;17.30;87.00;;;;;;5093481;28;20036;-77
2022/05/09 06:24:00;;;;;;;11.73;7.35;;;17.30;86.40;;;;;;5094428;28;20044;-77
2022/05/09 06:26:45;;;;;;;11.23;6.88;;;17.40;86.10;;;;;;5093962;28;20469;-78
2022/05/09 06:29:11;;;;;;;11.38;7.78;;;17.50;85.90;;;;;;5092585;28;20027;-77
2022/05/09 06:31:40;;;;;;;16.13;8.50;;;17.60;85.80;;;;;;5093760;28;20039;-77
2022/05/09 06:34:11;;;;;;;13.65;7.97;;;17.70;84.30;;;;;;5094270;28;20177;-78
2022/05/09 06:36:38;;;;;;;13.45;8.18;;;17.70;84.50;;;;;;5093734;28;20266;-77
2022/05/09 06:39:05;;;;;;;15.18;9.05;;;17.80;84.90;;;;;;5094115;28;20101;-76
2022/05/09 06:41:31;;;;;;;10.98;7.55;;;17.80;83.70;;;;;;5093234;28;20051;-77
2022/05/09 06:43:56;;;;;;;10.52;7.70;;;17.90;83.40;;;;;;5092725;28;20453;-78
2022/05/09 06:46:22;;;;;;;10.48;6.60;;;18.00;82.20;;;;;;5093462;28;20097;-78
2022/05/09 06:48:48;;;;;;;13.43;7.47;;;18.10;82.90;;;;;;5093673;28;20398;-78
2022/05/09 06:51:13;;;;;;;9.93;7.47;;;18.10;81.80;;;;;;5093730;28;20035;-77
2022/05/09 06:53:39;;;;;;;9.88;7.35;;;18.20;80.80;;;;;;5092940;28;20060;-77
2022/05/09 06:56:05;;;;;;;13.80;7.22;;;18.30;79.50;;;;;;5093045;28;20028;-78
2022/05/09 06:58:31;;;;;;;11.15;7.68;;;18.50;80.00;;;;;;5072707;28;20433;-76
2022/05/09 07:00:57;;;;;;;14.07;8.27;;;18.60;78.60;;;;;;5073442;28;20115;-77
2022/05/09 07:03:23;;;;;;;8.70;7.55;;;18.80;79.00;;;;;;5072614;28;20431;-77
2022/05/09 07:05:51;;;;;;;9.90;7.28;;;18.90;78.90;;;;;;5073357;28;20036;-77
2022/05/09 07:08:19;;;;;;;13.18;7.93;;;19.10;77.70;;;;;;5073227;28;20027;-77
2022/05/09 07:10:45;;;;;;;9.73;7.95;;;19.10;76.00;;;;;;5073150;28;20024;-78
2022/05/09 07:13:11;;;;;;;11.25;7.35;;;19.20;76.30;;;;;;5073180;28;20504;-77
2022/05/09 07:15:37;;;;;;;12.45;7.65;;;19.30;76.00;;;;;;5073063;28;20036;-76
2022/05/09 07:18:04;;;;;;;13.77;8.13;;;19.30;74.30;;;;;;5072896;28;20462;-77
2022/05/09 07:20:32;;;;;;;11.07;7.60;;;19.40;74.50;;;;;;5071783;28;20050;-78
2022/05/09 07:23:10;;;;;;;11.20;8.18;;;19.40;74.80;;;;;;5074024;28;20028;-77
2022/05/09 07:25:36;;;;;;;9.80;7.88;;;19.50;74.70;;;;;;5073299;28;20097;-78
2022/05/09 07:28:03;;;;;;;8.65;7.47;;;19.80;74.50;;;;;;5072964;28;20060;-78
2022/05/09 07:30:28;;;;;;;11.38;7.47;;;19.90;72.90;;;;;;5071953;28;20040;-76
2022/05/09 07:32:55;;;;;;;9.52;7.45;;;20.10;72.40;;;;;;5072844;28;20454;-77
2022/05/09 07:35:21;;;;;;;10.80;7.45;;;20.50;72.20;;;;;;5073027;28;20033;-76
2022/05/09 07:37:47;;;;;;;10.07;7.43;;;20.80;68.70;;;;;;5072794;28;20449;-76
2022/05/09 07:40:16;;;;;;;12.00;7.55;;;21.20;70.30;;;;;;5073351;28;20032;-78
2022/05/09 07:42:43;;;;;;;10.73;7.43;;;21.50;67.50;;;;;;5073295;28;20381;-78
2022/05/09 07:45:12;;;;;;;8.73;6.78;;;21.80;66.70;;;;;;5073671;28;20086;-77
2022/05/09 07:47:39;;;;;;;7.90;6.57;;;22.20;63.30;;;;;;5072785;28;20027;-78
2022/05/09 07:50:06;;;;;;;8.30;6.68;;;22.60;62.90;;;;;;5072248;28;20033;-78
2022/05/09 07:52:32;;;;;;;11.88;6.57;;;23.00;61.70;;;;;;5072864;28;20104;-77
2022/05/09 07:54:58;;;;;;;12.02;7.53;;;23.50;61.70;;;;;;5072302;28;20107;-75
2022/05/09 07:57:23;;;;;;;9.48;6.57;;;23.90;57.60;;;;;;5072090;28;20096;-78
2022/05/09 07:59:49;;;;;;;8.85;7.30;;;24.50;56.90;;;;;;5072534;28;20032;-76
2022/05/09 08:02:14;;;;;;;11.07;8.05;;;24.90;54.10;;;;;;5072177;28;20029;-77
2022/05/09 08:04:40;;;;;;;8.85;7.07;;;25.40;53.10;;;;;;5085313;28;20464;-76
2022/05/09 08:07:06;;;;;;;8.50;6.63;;;25.80;52.10;;;;;;5092041;28;20020;-77
2022/05/09 08:09:33;;;;;;;12.23;7.35;;;26.20;51.70;;;;;;5091891;28;20142;-77
2022/05/09 08:12:00;;;;;;;11.10;7.40;;;26.00;50.40;;;;;;5092417;28;20067;-76
2022/05/09 08:14:28;;;;;;;13.00;7.00;;;26.10;50.30;;;;;;5091483;28;20097;-76
2022/05/09 08:16:54;;;;;;;11.50;7.13;;;26.30;50.00;;;;;;5108297;28;20427;-77
2022/05/09 08:19:20;;;;;;;8.82;6.88;;;26.10;49.40;;;;;;5092611;28;20114;-78
2022/05/09 08:21:49;;;;;;;6.97;6.18;;;25.90;50.40;;;;;;5091888;28;20452;-76
2022/05/09 08:24:16;;;;;;;9.40;6.68;;;25.90;49.90;;;;;;5092485;28;20052;-76
2022/05/09 08:26:42;;;;;;;8.07;6.40;;;26.10;50.00;;;;;;5091626;28;20024;-77
2022/05/09 08:29:07;;;;;;;11.10;7.07;;;26.30;51.10;;;;;;5092300;28;20070;-78
2022/05/09 08:31:33;;;;;;;12.43;8.05;;;26.50;49.00;;;;;;5091863;28;20028;-76
2022/05/09 08:33:59;;;;;;;9.63;6.45;;;26.20;48.10;;;;;;5092813;28;20032;-77
2022/05/09 08:39:11;;;;;;;13.82;7.22;;;26.20;49.10;;;;;;5091484;28;20054;-77
2022/05/09 08:41:50;;;;;;;10.38;6.82;;;25.90;50.10;;;;;;5091287;28;20029;-77
2022/05/09 08:44:37;;;;;;;8.60;6.30;;;26.10;49.90;;;;;;5091691;28;20079;-77
2022/05/09 08:47:06;;;;;;;11.57;8.13;;;26.30;48.90;;;;;;5092187;28;20305;-76
2022/05/09 08:50:16;;;;;;;8.23;6.95;;;26.10;47.70;;;;;;5091287;28;20024;-76
2022/05/09 08:52:49;;;;;;;8.77;7.30;;;25.90;48.50;;;;;;5091437;28;20048;-77
2022/05/09 08:55:21;;;;;;;12.57;8.00;;;25.70;48.90;;;;;;5091537;28;20031;-77
2022/05/09 08:58:00;;;;;;;8.32;7.50;;;25.30;50.00;;;;;;5091522;28;20418;-78
2022/05/09 09:00:29;;;;;;;10.93;7.47;;;25.10;50.40;;;;;;5091872;28;20028;-77
2022/05/09 09:03:16;;;;;;;9.02;7.70;;;24.70;51.90;;;;;;5091562;28;20144;-77
2022/05/09 09:05:46;;;;;;;9.30;7.88;;;24.50;52.50;;;;;;5091111;28;20062;-77
2022/05/09 09:08:26;;;;;;;10.32;8.00;;;24.40;52.60;;;;;;5091632;28;20020;-77
2022/05/09 09:11:16;;;;;;;10.02;7.15;;;24.00;53.90;;;;;;5091498;28;20032;-76
2022/05/09 09:14:00;;;;;;;9.55;6.25;;;24.00;54.30;;;;;;5090804;28;20129;-77
2022/05/09 09:17:03;;;;;;;9.02;6.60;;;24.00;56.00;;;;;;5091680;28;20048;-76
2022/05/09 09:19:56;;;;;;;11.00;7.50;;;24.00;55.90;;;;;;5068904;28;20125;-77
2022/05/09 09:22:46;;;;;;;9.38;6.70;;;24.00;55.20;;;;;;5090811;28;20040;-77
2022/05/09 09:25:26;;;;;;;7.90;5.95;;;24.00;54.90;;;;;;5091418;28;20075;-77
2022/05/09 09:28:14;;;;;;;6.80;5.43;;;24.00;54.80;;;;;;5090998;28;20032;-77
2022/05/09 09:30:43;;;;;;;6.53;5.70;;;24.10;52.90;;;;;;5091052;28;20028;-77
2022/05/09 09:33:11;;;;;;;5.97;4.88;;;24.20;51.80;;;;;;5091648;28;20039;-77
2022/05/09 09:35:46;;;;;;;7.35;5.15;;;24.20;52.80;;;;;;5090887;28;20027;-77
2022/05/09 09:38:22;;;;;;;7.40;5.75;;;24.30;51.80;;;;;;5091455;28;20020;-77
2022/05/09 09:40:48;;;;;;;11.90;6.00;;;24.30;51.50;;;;;;5090889;28;20024;-77
2022/05/09 09:43:14;;;;;;;7.82;5.88;;;24.20;51.20;;;;;;5091551;28;20020;-78
2022/05/09 09:46:00;;;;;;;8.20;5.28;;;24.20;51.80;;;;;;5090847;28;20549;-77
2022/05/09 09:48:26;;;;;;;11.32;6.03;;;24.30;53.60;;;;;;5091627;28;20042;-76
2022/05/09 09:51:03;;;;;;;9.55;5.65;;;24.40;52.40;;;;;;5091976;28;20089;-75
2022/05/09 09:53:47;;;;;;;8.48;6.65;;;24.50;52.40;;;;;;5095132;28;20036;-77
2022/05/09 09:56:22;;;;;;;10.05;6.30;;;24.50;52.90;;;;;;5095254;28;20388;-78
2022/05/09 09:59:21;;;;;;;8.02;7.22;;;24.50;53.40;;;;;;5094712;28;20034;-77
2022/05/09 10:02:16;;;;;;;12.60;6.70;;;24.40;52.20;;;;;;5086481;28;20222;-77
2022/05/09 10:04:44;;;;;;;13.93;8.05;;;24.50;52.60;;;;;;5074322;28;20029;-76
2022/05/09 10:07:16;;;;;;;9.77;7.43;;;24.60;52.10;;;;;;5079241;28;20461;-77
2022/05/09 10:10:00;;;;;;;7.50;6.25;;;24.40;51.90;;;;;;5094447;28;20110;-76
2022/05/09 10:12:31;;;;;;;8.25;6.53;;;24.40;53.10;;;;;;5094710;28;20536;-77
2022/05/09 10:14:57;;;;;;;9.63;7.00;;;24.50;52.50;;;;;;5094507;28;20044;-77
2022/05/09 10:17:25;;;;;;;8.73;7.82;;;24.50;52.70;;;;;;5094669;28;20142;-77
2022/05/09 10:19:55;;;;;;;10.80;7.32;;;24.50;51.90;;;;;;5093634;28;20365;-77
2022/05/09 10:25:28;;;;;;;9.82;6.95;;;24.50;54.20;;;;;;5094764;28;20115;-75
2022/05/09 10:28:21;;;;;;;11.18;6.85;;;24.50;52.70;;;;;;5093307;28;20028;-77
2022/05/09 10:30:54;;;;;;;8.90;6.43;;;24.50;52.00;;;;;;5091560;28;20079;-76
2022/05/09 10:33:38;;;;;;;9.50;5.93;;;24.60;52.60;;;;;;5094203;28;20082;-75
2022/05/09 10:36:34;;;;;;;8.20;5.25;;;24.70;51.00;;;;;;5094397;28;20453;-77
2022/05/09 10:39:47;;;;;;;10.60;6.80;;;24.70;50.70;;;;;;5093787;28;20384;-76
2022/05/09 10:42:20;;;;;;;6.60;4.93;;;24.70;51.00;;;;;;5094085;28;20063;-75
2022/05/09 10:45:04;;;;;;;10.82;4.30;;;24.70;49.10;;;;;;5093174;28;20115;-77
2022/05/09 10:47:38;;;;;;;5.97;4.40;;;24.80;48.50;;;;;;5093962;28;20526;-75
2022/05/09 10:50:19;;;;;;;6.45;4.50;;;24.90;48.40;;;;;;5109380;28;20358;-77
2022/05/09 10:53:12;;;;;;;10.20;4.63;;;24.90;47.70;;;;;;5093732;28;20065;-76
2022/05/09 10:55:38;;;;;;;6.53;4.05;;;25.00;49.80;;;;;;5093109;28;20032;-76
2022/05/09 10:58:33;;;;;;;5.30;4.20;;;25.10;48.30;;;;;;5093595;28;20028;-76
2022/05/09 11:01:11;;;;;;;9.43;3.95;;;25.00;47.40;;;;;;5092618;28;20082;-77
2022/05/09 11:03:39;;;;;;;5.82;3.70;;;24.90;46.30;;;;;;5093056;28;20100;-77
2022/05/09 11:06:39;;;;;;;10.00;4.78;;;24.90;45.40;;;;;;5093728;28;20433;-77
2022/05/09 11:09:24;;;;;;;5.25;4.30;;;24.80;47.30;;;;;;5070154;28;20067;-76
2022/05/09 11:11:50;;;;;;;6.35;3.75;;;24.60;47.70;;;;;;5092978;28;20047;-77
2022/05/09 11:14:27;;;;;;;8.25;5.32;;;24.50;48.60;;;;;;5093092;28;20330;-77
2022/05/09 11:17:21;;;;;;;7.28;4.65;;;24.50;49.50;;;;;;5092546;28;20024;-76
2022/05/09 11:20:09;;;;;;;6.57;4.28;;;24.60;49.80;;;;;;5092887;28;20427;-77
2022/05/09 11:22:37;;;;;;;9.80;4.93;;;24.70;50.60;;;;;;5093267;28;20035;-77
2022/05/09 11:25:30;;;;;;;6.57;4.72;;;24.70;49.00;;;;;;5093377;28;20116;-77
2022/05/09 11:28:22;;;;;;;5.78;4.78;;;24.70;48.40;;;;;;5092824;28;20055;-77
2022/05/09 11:31:09;;;;;;;8.43;4.82;;;24.70;49.20;;;;;;5092718;28;20031;-77
2022/05/09 11:34:02;;;;;;;7.35;4.70;;;24.90;49.10;;;;;;5092948;28;20484;-76
2022/05/09 11:37:04;;;;;;;6.90;4.78;;;24.90;48.10;;;;;;5093347;28;20100;-76
2022/05/09 11:39:48;;;;;;;5.70;4.60;;;24.90;48.00;;;;;;5085767;28;20389;-77
2022/05/09 11:45:17;;;;;;;8.48;4.20;;;24.90;48.50;;;;;;5092659;28;20430;-76
2022/05/09 11:47:56;;;;;;;5.25;4.50;;;25.00;49.10;;;;;;5092055;28;20020;-76
2022/05/09 11:50:31;;;;;;;11.02;4.80;;;24.90;48.10;;;;;;5092825;28;20036;-77
2022/05/09 11:53:00;;;;;;;8.13;5.03;;;24.70;47.50;;;;;;5091793;28;20088;-76
2022/05/09 11:55:26;;;;;;;7.85;4.35;;;24.70;48.10;;;;;;5092800;28;20081;-76
2022/05/09 11:57:58;;;;;;;10.63;4.60;;;24.50;48.00;;;;;;5092158;28;20055;-76
2022/05/09 12:00:30;;;;;;;11.63;4.47;;;24.50;47.00;;;;;;5092216;28;20039;-75
2022/05/09 12:03:00;;;;;;;6.07;4.43;;;24.30;46.20;;;;;;5091974;28;20031;-77
2022/05/09 12:05:26;;;;;;;6.15;4.30;;;24.30;47.30;;;;;;5092707;28;20082;-78
2022/05/09 12:08:02;;;;;;;5.32;4.28;;;24.30;47.40;;;;;;5091759;28;20472;-77
2022/05/09 12:10:28;;;;;;;5.10;4.10;;;24.20;47.80;;;;;;5092044;28;20024;-76
2022/05/09 12:12:58;;;;;;;11.20;4.88;;;24.20;48.50;;;;;;5090779;28;20060;-76
2022/05/09 12:15:24;;;;;;;6.30;3.93;;;24.20;49.00;;;;;;5091758;28;20048;-77
2022/05/09 12:18:00;;;;;;;7.93;4.10;;;24.30;48.90;;;;;;5091634;28;20479;-77
2022/05/09 12:20:29;;;;;;;8.30;4.18;;;24.20;47.30;;;;;;5091893;28;20024;-77
2022/05/09 12:23:09;;;;;;;12.50;4.03;;;24.20;47.80;;;;;;5091383;28;20051;-77
2022/05/09 12:25:44;;;;;;;7.53;4.63;;;24.30;48.10;;;;;;5092237;28;20020;-76
2022/05/09 12:28:18;;;;;;;5.00;3.95;;;24.30;48.10;;;;;;5091976;28;20051;-76
2022/05/09 12:31:25;;;;;;;5.15;3.90;;;24.30;47.40;;;;;;5090978;28;20056;-77
2022/05/09 12:33:52;;;;;;;7.38;4.10;;;24.20;48.00;;;;;;5091205;28;20063;-76
2022/05/09 12:36:28;;;;;;;7.20;4.30;;;24.10;46.90;;;;;;5091989;28;20039;-76
2022/05/09 12:39:01;;;;;;;7.68;4.32;;;24.00;48.60;;;;;;5091838;28;20024;-77
2022/05/09 12:41:38;;;;;;;6.97;4.63;;;24.00;48.00;;;;;;5092123;28;20156;-77
2022/05/09 12:44:18;;;;;;;7.05;4.15;;;23.90;47.60;;;;;;5091395;28;20024;-77
2022/05/09 12:46:58;;;;;;;8.13;3.90;;;23.90;47.80;;;;;;5090976;28;20453;-78
2022/05/09 12:49:37;;;;;;;10.53;4.10;;;23.80;48.00;;;;;;5091655;28;20024;-77
2022/05/09 12:52:03;;;;;;;6.50;3.70;;;23.80;48.10;;;;;;5091085;28;20404;-76
2022/05/09 12:54:30;;;;;;;5.07;3.63;;;23.80;47.60;;;;;;5091480;28;20036;-76
2022/05/09 12:57:03;;;;;;;9.98;4.03;;;23.80;47.30;;;;;;5090805;28;20049;-76
2022/05/09 12:59:45;;;;;;;7.93;4.45;;;23.90;47.30;;;;;;5091543;28;20118;-77
2022/05/09 13:02:20;;;;;;;7.07;3.80;;;23.90;47.20;;;;;;5091583;28;20024;-76
2022/05/09 13:04:47;;;;;;;4.55;3.72;;;23.80;46.80;;;;;;5090763;28;20024;-77
2022/05/09 13:07:14;;;;;;;5.78;4.03;;;23.80;47.10;;;;;;5091548;28;20469;-77
2022/05/09 13:09:48;;;;;;;9.20;3.90;;;23.80;47.60;;;;;;5091214;28;20434;-76
2022/05/09 13:12:36;;;;;;;6.13;4.00;;;23.80;47.50;;;;;;5091213;28;20029;-76
2022/05/09 13:15:07;;;;;;;5.45;3.47;;;23.80;47.20;;;;;;5106032;28;20071;-77